Terminal Aerodrome Forecast
Issued by NWS

Home | Current Version | Previous Version | Text Only | Print | Product List | Glossary On
Versions: 1 2 3 4 5 6 7 8 9 10 11 12 13 14 15
000
FTUS42 KMLB 250500
TAFFPR
TAF
KFPR 250536Z 2506/2606 22003KT P6SM FEW250
      TEMPO 2509/2512 2SM BR SCT005
     FM251400 23006KT P6SM FEW040
     FM251800 12010KT P6SM SCT040
     FM260100 19004KT P6SM FEW040=

USA.gov is the U.S. government's official web portal to all federal, state and local government web resources and services.